Terminal Aerodrome Forecast
Issued by NWS Tuscon, AZ

Current Version | Previous Version | Text Only | Print | Product List | Glossary On
Versions: 1 2 3 4 5 6 7 8 9 10 11
000
FTUS45 KTWC 121120
TAFTUS
TAF
KTUS 121120Z 1212/1312 12011KT P6SM SCT180
     FM121600 10014G23KT P6SM SCT200
     FM130000 11011KT P6SM SCT200=

USA.gov is the U.S. government's official web portal to all federal, state and local government web resources and services.